84PA weather

Ged Heliport
Birdsboro, Pennsylvania, United States

Public forecast

Using degrees Fahrenheit for public forecast. Weather courtesy of forecast.io.

METAR (pilot weather report)

Closest report is Reading Regional Carl A Spaatz Field, 7.6 nm (14.1 km) WNW. Retrieved 2019/07/18 02:54 UTC (1 hour ago):

KRDG 180254Z 00000KT 10SM FEW110 23/23 A2989 RMK AO2 SLP122 60003 T02330233 56003

TAF (pilot weather forecast)

Forecast is more than 12 hours old.

Closest forecast is Reading Regional Carl A Spaatz Field, 7.6 nm (14.1 km) WNW. Retrieved 2019/07/17 00:24 UTC (1 day ago):

TAF KRDG 172323Z 1800/1824 25006KT P6SM SHRA OVC080 TEMPO 1800/1804 VRB20G30KT 2SM +TSRA OVC025CB FM180400 21005KT 6SM BR OVC040 FM181400 VRB02KT P6SM VCSH BKN015 FM181600 VRB02KT 6SM SHRA BKN035